Terminal Aerodrome Forecast
Issued by NWS

Home | Current Version | Previous Version | Text Only | Print | Product List | Glossary On
Versions: 1 2 3 4 5 6 7 8 9 10 11 12 13 14 15 16 17 18 19 20 21 22 23 24 25 26
000
FTUS45 KGJT 221136
TAFEGE
TAF
KEGE 221136Z 2212/2312 VRB03KT P6SM SCT200
     FM222000 23007KT P6SM VCTS SCT100CB BKN150
     FM230200 13005KT P6SM BKN100
     FM230600 00000KT P6SM SCT100
      AMD LTD TO CLD VIS AND WIND TIL 221400=

USA.gov is the U.S. government's official web portal to all federal, state and local government web resources and services.